createdAt,value
2018-05-31T00:01:20.455Z,25.30
2018-05-31T00:03:48.228Z,25.30
2018-05-31T00:06:15.984Z,25.30
2018-05-31T00:08:43.761Z,25.30
2018-05-31T00:11:11.537Z,25.20
2018-05-31T00:13:39.415Z,25.10
2018-05-31T00:16:07.076Z,25.10
2018-05-31T00:18:35.100Z,25.20
2018-05-31T00:21:02.950Z,25.10
2018-05-31T00:23:30.640Z,24.90
2018-05-31T00:25:59.134Z,25.00
2018-05-31T00:28:26.969Z,25.00
2018-05-31T00:30:54.770Z,25.00
2018-05-31T00:33:22.592Z,25.00
2018-05-31T00:35:51.065Z,25.00
2018-05-31T00:38:19.636Z,25.00
2018-05-31T00:40:47.411Z,25.00
2018-05-31T00:43:15.109Z,24.90
2018-05-31T00:45:42.889Z,24.80
2018-05-31T00:48:10.638Z,24.80
2018-05-31T00:50:38.441Z,24.90
2018-05-31T00:53:06.080Z,24.80
2018-05-31T00:55:45.745Z,24.50
2018-05-31T00:58:13.441Z,24.10
2018-05-31T01:00:41.299Z,24.10
2018-05-31T01:03:09.075Z,24.40
2018-05-31T01:05:36.953Z,24.60
2018-05-31T01:08:04.772Z,24.70
2018-05-31T01:10:33.364Z,24.60
2018-05-31T01:13:02.127Z,24.40
2018-05-31T01:15:30.006Z,24.40
2018-05-31T01:17:57.886Z,24.40
2018-05-31T01:20:25.592Z,24.10
2018-05-31T01:22:54.153Z,23.10
2018-05-31T01:25:21.929Z,23.10
2018-05-31T01:27:49.631Z,23.70
2018-05-31T01:30:18.199Z,24.30
2018-05-31T01:32:45.871Z,24.20
2018-05-31T01:35:13.749Z,24.40
2018-05-31T01:37:41.527Z,24.40
2018-05-31T01:40:09.201Z,24.10
2018-05-31T01:42:36.874Z,24.40
2018-05-31T01:45:04.857Z,24.30
2018-05-31T01:47:32.735Z,24.30
2018-05-31T01:50:00.616Z,24.40
2018-05-31T01:52:28.420Z,24.40
2018-05-31T01:54:56.986Z,24.30
2018-05-31T01:57:24.787Z,24.30
2018-05-31T01:59:52.537Z,24.30
2018-05-31T02:02:20.312Z,24.30
2018-05-31T02:04:47.987Z,24.30
2018-05-31T02:07:15.674Z,24.30
2018-05-31T02:09:43.410Z,23.80
2018-05-31T02:12:11.953Z,22.80
2018-05-31T02:14:39.707Z,22.80
2018-05-31T02:17:07.587Z,23.40
2018-05-31T02:19:35.364Z,23.70
2018-05-31T02:22:03.348Z,23.90
2018-05-31T02:24:31.169Z,24.00
2018-05-31T02:26:59.943Z,23.90
2018-05-31T02:29:28.522Z,24.00
2018-05-31T02:31:56.396Z,24.00
2018-05-31T02:34:24.172Z,24.00
2018-05-31T02:36:51.948Z,24.00
2018-05-31T02:39:19.652Z,24.10
2018-05-31T02:41:48.217Z,24.00
2018-05-31T02:44:16.097Z,23.90
2018-05-31T02:46:43.771Z,23.90
2018-05-31T02:49:11.548Z,23.90
2018-05-31T02:51:39.216Z,23.90
2018-05-31T02:54:07.126Z,23.70
2018-05-31T02:56:34.875Z,23.70
2018-05-31T02:59:02.960Z,22.90
2018-05-31T03:01:30.662Z,23.40
2018-05-31T03:03:59.252Z,23.60
2018-05-31T03:06:27.005Z,23.60
2018-05-31T03:08:54.684Z,23.10
2018-05-31T03:11:22.385Z,22.50
2018-05-31T03:13:50.130Z,22.70
2018-05-31T03:16:17.906Z,21.60
2018-05-31T03:18:45.597Z,22.40
2018-05-31T03:21:13.360Z,22.90
2018-05-31T03:23:41.135Z,22.30
2018-05-31T03:26:08.830Z,21.90
2018-05-31T03:28:36.730Z,22.30
2018-05-31T03:31:05.183Z,23.10
2018-05-31T03:33:33.160Z,23.00
2018-05-31T03:36:01.051Z,23.20
2018-05-31T03:38:29.025Z,23.40
2018-05-31T03:40:57.617Z,23.80
2018-05-31T03:43:25.309Z,23.70
2018-05-31T03:45:53.885Z,23.80
2018-05-31T03:48:21.661Z,23.70
2018-05-31T03:50:49.348Z,23.60
2018-05-31T03:53:16.985Z,23.80
2018-05-31T03:55:44.714Z,23.80
2018-05-31T03:58:12.368Z,23.40
2018-05-31T04:00:40.052Z,23.40
2018-05-31T04:03:07.810Z,23.50
2018-05-31T04:05:35.712Z,23.70
2018-05-31T04:08:03.533Z,23.90
2018-05-31T04:10:31.443Z,24.00
2018-05-31T04:13:00.404Z,24.10
2018-05-31T04:15:28.870Z,23.80
2018-05-31T04:17:56.614Z,23.70
2018-05-31T04:20:24.248Z,22.60
2018-05-31T04:22:52.700Z,23.30
2018-05-31T04:25:21.275Z,23.80
2018-05-31T04:27:49.056Z,23.80
2018-05-31T04:30:16.749Z,24.10
2018-05-31T04:32:44.605Z,24.20
2018-05-31T04:35:12.302Z,24.10
2018-05-31T04:37:40.874Z,24.50
2018-05-31T04:40:08.654Z,24.50
2018-05-31T04:42:36.529Z,25.40
2018-05-31T04:45:04.311Z,25.40
2018-05-31T04:47:32.185Z,25.00
2018-05-31T04:49:59.894Z,25.80
2018-05-31T04:52:28.472Z,26.70
2018-05-31T04:54:56.329Z,26.70
2018-05-31T04:57:24.132Z,25.60
2018-05-31T04:59:51.878Z,26.50
2018-05-31T05:02:19.693Z,26.50
2018-05-31T05:04:48.250Z,27.10
2018-05-31T05:07:16.069Z,27.00
2018-05-31T05:09:44.700Z,25.90
2018-05-31T05:12:12.425Z,25.90
2018-05-31T05:14:40.398Z,26.90
2018-05-31T05:17:08.155Z,27.20
2018-05-31T05:19:35.856Z,27.80
2018-05-31T05:22:03.607Z,28.10
2018-05-31T05:24:31.384Z,28.80
2018-05-31T05:26:59.020Z,29.10
2018-05-31T05:29:26.831Z,28.20
2018-05-31T05:31:54.509Z,29.10
2018-05-31T05:34:22.308Z,29.60
2018-05-31T05:36:50.370Z,29.60
2018-05-31T05:39:20.705Z,30.30
2018-05-31T05:41:48.687Z,30.90
2018-05-31T05:44:16.826Z,30.50
2018-05-31T05:46:45.395Z,30.10
2018-05-31T05:49:14.064Z,30.30
2018-05-31T05:51:41.834Z,30.30
2018-05-31T05:54:09.708Z,29.40
2018-05-31T05:56:37.387Z,29.30
2018-05-31T05:59:05.169Z,28.90
2018-05-31T06:01:32.936Z,30.10
2018-05-31T06:04:00.633Z,29.30
2018-05-31T06:06:28.409Z,30.90
2018-05-31T06:08:56.857Z,28.60
2018-05-31T06:11:24.577Z,28.60
2018-05-31T06:13:52.248Z,29.20
2018-05-31T06:16:20.107Z,29.20
2018-05-31T06:18:47.781Z,30.10
2018-05-31T06:21:15.789Z,30.70
2018-05-31T06:23:43.458Z,30.40
2018-05-31T06:26:11.985Z,30.10
2018-05-31T06:28:39.705Z,30.00
2018-05-31T06:31:07.582Z,28.90
2018-05-31T06:33:35.379Z,27.90
2018-05-31T06:36:03.237Z,27.70
2018-05-31T06:38:31.014Z,28.20
2018-05-31T06:40:58.685Z,26.50
2018-05-31T06:43:26.311Z,27.10
2018-05-31T06:45:54.010Z,27.50
2018-05-31T06:48:21.712Z,28.90
2018-05-31T06:50:49.897Z,29.70
2018-05-31T06:53:18.273Z,30.60
2018-05-31T06:55:46.985Z,27.10
2018-05-31T06:58:14.766Z,27.10
2018-05-31T07:00:42.686Z,29.10
2018-05-31T07:03:11.443Z,32.40
2018-05-31T07:05:39.217Z,32.30
2018-05-31T07:08:06.996Z,31.50
2018-05-31T07:10:34.655Z,29.50
2018-05-31T07:13:02.451Z,27.50
2018-05-31T07:15:30.240Z,26.20
2018-05-31T07:17:57.995Z,25.80
2018-05-31T07:20:25.792Z,26.00
2018-05-31T07:22:53.576Z,27.20
2018-05-31T07:25:21.251Z,27.60
2018-05-31T07:27:49.008Z,27.80
2018-05-31T07:30:16.907Z,27.60
2018-05-31T07:32:44.655Z,25.80
2018-05-31T07:35:13.659Z,26.40
2018-05-31T07:37:41.434Z,26.40
2018-05-31T07:40:09.210Z,27.10
2018-05-31T07:42:37.081Z,26.80
2018-05-31T07:45:05.070Z,27.70
2018-05-31T07:47:32.769Z,27.80
2018-05-31T07:50:00.416Z,27.70
2018-05-31T07:52:28.202Z,28.60
2018-05-31T07:54:55.971Z,28.70
2018-05-31T07:57:23.647Z,28.60
2018-05-31T07:59:51.421Z,28.30
2018-05-31T08:02:19.198Z,28.00
2018-05-31T08:04:47.161Z,28.00
2018-05-31T08:07:15.339Z,28.40
2018-05-31T08:09:43.238Z,28.50
2018-05-31T08:12:10.915Z,29.80
2018-05-31T08:14:38.585Z,29.80
2018-05-31T08:17:06.289Z,30.00
2018-05-31T08:19:34.452Z,29.70
2018-05-31T08:22:03.234Z,29.80
2018-05-31T08:24:31.109Z,29.80
2018-05-31T08:26:58.904Z,29.80
2018-05-31T08:29:26.601Z,30.30
2018-05-31T08:31:54.235Z,30.20
2018-05-31T08:34:22.031Z,29.00
2018-05-31T08:36:49.811Z,29.20
2018-05-31T08:39:17.606Z,29.40
2018-05-31T08:41:45.228Z,29.30
2018-05-31T08:44:13.749Z,28.90
2018-05-31T08:46:41.527Z,28.90
2018-05-31T08:49:09.303Z,29.10
2018-05-31T08:51:37.184Z,29.10
2018-05-31T08:54:04.992Z,29.30
2018-05-31T08:56:32.839Z,29.40
2018-05-31T08:59:00.479Z,29.30
2018-05-31T09:01:28.144Z,29.30
2018-05-31T09:03:56.678Z,29.00
2018-05-31T09:06:24.455Z,29.00
2018-05-31T09:08:52.234Z,29.10
2018-05-31T09:11:20.106Z,28.50
2018-05-31T09:13:47.808Z,28.70
2018-05-31T09:16:15.581Z,28.10
2018-05-31T09:18:44.181Z,28.50
2018-05-31T09:21:11.962Z,28.50
2018-05-31T09:23:40.664Z,28.80
2018-05-31T09:26:08.432Z,28.80
2018-05-31T09:28:36.185Z,28.90
2018-05-31T09:31:03.976Z,28.70
2018-05-31T09:33:31.671Z,29.00
2018-05-31T09:35:59.433Z,29.00
2018-05-31T09:38:27.201Z,29.30
2018-05-31T09:40:54.880Z,29.10
2018-05-31T09:43:23.369Z,29.60
2018-05-31T09:45:51.047Z,29.60
2018-05-31T09:48:18.798Z,29.30
2018-05-31T09:50:46.575Z,29.50
2018-05-31T09:53:14.550Z,29.00
2018-05-31T09:55:42.233Z,28.90
2018-05-31T09:58:10.240Z,29.20
2018-05-31T10:00:37.888Z,29.30
2018-05-31T10:03:05.680Z,29.50
2018-05-31T10:05:33.321Z,29.20
2018-05-31T10:08:01.760Z,29.10
2018-05-31T10:10:29.444Z,29.10
2018-05-31T10:12:57.299Z,29.20
2018-05-31T10:15:25.042Z,28.90
2018-05-31T10:17:53.488Z,28.70
2018-05-31T10:20:21.368Z,28.70
2018-05-31T10:22:49.118Z,28.30
2018-05-31T10:25:16.898Z,28.70
2018-05-31T10:27:44.752Z,28.30
2018-05-31T10:30:12.582Z,28.80
2018-05-31T10:32:40.224Z,29.20
2018-05-31T10:35:08.008Z,28.60
2018-05-31T10:37:35.780Z,29.00
2018-05-31T10:40:03.508Z,28.90
2018-05-31T10:42:31.942Z,29.20
2018-05-31T10:44:59.751Z,29.20
2018-05-31T10:47:27.412Z,29.10
2018-05-31T10:49:55.087Z,28.90
2018-05-31T10:52:22.834Z,29.20
2018-05-31T10:54:50.781Z,29.70
2018-05-31T10:57:19.205Z,29.80
2018-05-31T10:59:46.880Z,29.80
2018-05-31T11:02:14.513Z,29.20
2018-05-31T11:04:43.076Z,29.60
2018-05-31T11:07:10.934Z,29.50
2018-05-31T11:09:38.812Z,29.40
2018-05-31T11:12:06.517Z,29.50
2018-05-31T11:14:34.140Z,30.10
2018-05-31T11:17:01.937Z,30.00
2018-05-31T11:19:29.635Z,28.70
2018-05-31T11:21:57.387Z,29.50
2018-05-31T11:24:25.273Z,29.50
2018-05-31T11:26:53.149Z,29.70
2018-05-31T11:29:21.077Z,28.90
2018-05-31T11:31:49.730Z,28.70
2018-05-31T11:34:17.599Z,29.20
2018-05-31T11:36:45.376Z,29.00
2018-05-31T11:39:13.045Z,29.50
2018-05-31T11:41:41.081Z,29.20
2018-05-31T11:44:08.909Z,29.60
2018-05-31T11:46:36.686Z,29.20
2018-05-31T11:49:04.463Z,29.20
2018-05-31T11:51:32.239Z,27.90
2018-05-31T11:54:00.016Z,28.80
2018-05-31T11:56:27.691Z,29.20
2018-05-31T11:58:55.469Z,29.10
2018-05-31T12:01:23.618Z,29.20
2018-05-31T12:03:52.248Z,29.20
2018-05-31T12:06:19.943Z,29.20
2018-05-31T12:08:47.797Z,29.60
2018-05-31T12:11:15.984Z,29.60
2018-05-31T12:13:43.848Z,29.50
2018-05-31T12:16:11.827Z,29.40
2018-05-31T12:18:39.593Z,29.20
2018-05-31T12:21:07.292Z,29.40
2018-05-31T12:23:35.075Z,28.80
2018-05-31T12:26:02.741Z,29.20
2018-05-31T12:28:30.742Z,29.40
2018-05-31T12:30:58.579Z,29.60
2018-05-31T12:33:26.260Z,30.00
2018-05-31T12:35:54.054Z,30.10
2018-05-31T12:38:21.756Z,30.40
2018-05-31T12:40:49.532Z,30.20
2018-05-31T12:43:17.392Z,30.90
2018-05-31T12:45:45.189Z,30.10
2018-05-31T12:48:12.935Z,30.20
2018-05-31T12:50:40.711Z,29.80
2018-05-31T12:53:08.489Z,29.80
2018-05-31T12:55:36.289Z,30.60
2018-05-31T12:58:03.957Z,29.40
2018-05-31T13:00:31.629Z,29.80
2018-05-31T13:02:59.386Z,29.30
2018-05-31T13:05:27.084Z,29.60
2018-05-31T13:07:54.838Z,29.50
2018-05-31T13:10:22.719Z,29.20
2018-05-31T13:12:50.497Z,28.10
2018-05-31T13:15:18.485Z,29.60
2018-05-31T13:17:46.357Z,30.70
2018-05-31T13:20:14.253Z,30.70
2018-05-31T13:22:41.935Z,31.00
2018-05-31T13:25:09.734Z,31.00
2018-05-31T13:27:38.303Z,31.70
2018-05-31T13:30:06.052Z,31.60
2018-05-31T13:32:33.752Z,31.10
2018-05-31T13:35:01.502Z,31.30
2018-05-31T13:37:29.300Z,30.70
2018-05-31T13:39:56.971Z,31.20
2018-05-31T13:42:24.651Z,31.00
2018-05-31T13:44:52.608Z,30.80
2018-05-31T13:47:20.310Z,29.00
2018-05-31T13:49:47.940Z,30.10
2018-05-31T13:52:15.623Z,31.30
2018-05-31T13:54:43.506Z,32.10
2018-05-31T13:57:11.304Z,32.00
2018-05-31T13:59:38.957Z,31.80
2018-05-31T14:02:06.632Z,31.90
2018-05-31T14:04:34.334Z,32.10
2018-05-31T14:07:02.287Z,31.90
2018-05-31T14:09:30.074Z,30.80
2018-05-31T14:11:57.761Z,31.50
2018-05-31T14:14:25.532Z,31.60
2018-05-31T14:16:53.211Z,31.70
2018-05-31T14:19:20.985Z,32.00
2018-05-31T14:21:48.635Z,32.20
2018-05-31T14:24:16.537Z,32.20
2018-05-31T14:26:44.599Z,32.40
2018-05-31T14:29:12.713Z,32.30
2018-05-31T14:31:40.400Z,30.10
2018-05-31T14:34:08.080Z,30.80
2018-05-31T14:36:35.949Z,31.40
2018-05-31T14:39:03.773Z,31.90
2018-05-31T14:41:32.526Z,31.30
2018-05-31T14:44:00.232Z,31.30
2018-05-31T14:46:28.841Z,32.00
2018-05-31T14:48:56.509Z,31.90
2018-05-31T14:51:24.364Z,31.80
2018-05-31T14:53:52.149Z,31.90
2018-05-31T14:56:19.925Z,32.10
2018-05-31T14:58:48.418Z,30.50
2018-05-31T15:01:16.277Z,30.50
2018-05-31T15:03:43.963Z,30.90
2018-05-31T15:06:11.727Z,31.20
2018-05-31T15:08:39.419Z,31.50
2018-05-31T15:11:07.272Z,31.50
2018-05-31T15:13:34.971Z,32.00
2018-05-31T15:16:02.819Z,31.90
2018-05-31T15:18:30.497Z,32.00
2018-05-31T15:20:58.170Z,31.70
2018-05-31T15:23:25.838Z,31.90
2018-05-31T15:25:53.826Z,31.40
2018-05-31T15:28:21.608Z,31.70
2018-05-31T15:30:49.381Z,31.90
2018-05-31T15:33:17.155Z,31.40
2018-05-31T15:35:44.936Z,31.80
2018-05-31T15:38:12.629Z,31.90
2018-05-31T15:40:40.484Z,31.30
2018-05-31T15:43:08.180Z,30.40
2018-05-31T15:45:35.936Z,31.20
2018-05-31T15:48:03.732Z,31.90
2018-05-31T15:50:31.411Z,32.00
2018-05-31T15:52:59.184Z,31.80
2018-05-31T15:55:26.943Z,32.00
2018-05-31T15:57:54.924Z,31.00
2018-05-31T16:00:22.803Z,30.90
2018-05-31T16:02:51.325Z,31.20
2018-05-31T16:05:19.092Z,31.10
2018-05-31T16:07:46.865Z,31.00
2018-05-31T16:10:14.619Z,31.10
2018-05-31T16:12:42.395Z,31.30
2018-05-31T16:15:10.529Z,31.30
2018-05-31T16:17:38.276Z,31.70
2018-05-31T16:20:05.956Z,31.90
2018-05-31T16:22:33.635Z,31.80
2018-05-31T16:25:01.612Z,30.10
2018-05-31T16:27:29.280Z,30.00
2018-05-31T16:29:57.241Z,30.80
2018-05-31T16:32:25.088Z,31.50
2018-05-31T16:34:53.816Z,30.00
2018-05-31T16:37:21.529Z,30.00
2018-05-31T16:39:49.273Z,30.60
2018-05-31T16:42:17.041Z,30.70
2018-05-31T16:44:45.151Z,30.50
2018-05-31T16:47:12.823Z,30.40
2018-05-31T16:49:40.678Z,31.00
2018-05-31T16:52:08.354Z,31.40
2018-05-31T16:54:36.230Z,31.30
2018-05-31T16:57:03.929Z,30.70
2018-05-31T16:59:31.783Z,30.40
2018-05-31T17:01:59.456Z,31.00
2018-05-31T17:04:27.235Z,30.70
2018-05-31T17:06:55.043Z,30.20
2018-05-31T17:09:22.890Z,30.40
2018-05-31T17:11:50.769Z,30.00
2018-05-31T17:14:18.543Z,29.80
2018-05-31T17:16:46.341Z,30.00
2018-05-31T17:19:14.096Z,30.40
2018-05-31T17:21:41.898Z,30.60
2018-05-31T17:24:09.955Z,29.80
2018-05-31T17:26:37.837Z,29.70
2018-05-31T17:29:05.536Z,29.10
2018-05-31T17:31:33.316Z,29.90
2018-05-31T17:34:01.063Z,30.40
2018-05-31T17:36:28.940Z,31.00
2018-05-31T17:38:56.576Z,29.80
2018-05-31T17:41:25.025Z,29.20
2018-05-31T17:43:53.090Z,29.20
2018-05-31T17:46:20.865Z,29.90
2018-05-31T17:48:48.567Z,30.10
2018-05-31T17:51:16.220Z,30.50
2018-05-31T17:53:43.909Z,28.90
2018-05-31T17:56:11.590Z,29.80
2018-05-31T17:58:40.999Z,30.60
2018-05-31T18:01:08.956Z,30.60
2018-05-31T18:03:36.624Z,30.40
2018-05-31T18:06:04.405Z,30.80
2018-05-31T18:08:32.100Z,30.40
2018-05-31T18:10:59.857Z,29.50
2018-05-31T18:13:27.632Z,29.80
2018-05-31T18:15:55.513Z,30.10
2018-05-31T18:18:23.316Z,29.40
2018-05-31T18:20:51.207Z,29.80
2018-05-31T18:23:18.873Z,30.20
2018-05-31T18:25:46.532Z,30.30
2018-05-31T18:28:14.391Z,30.10
2018-05-31T18:30:42.065Z,30.40
2018-05-31T18:33:09.946Z,30.20
2018-05-31T18:35:37.585Z,30.20
2018-05-31T18:38:05.395Z,30.40
2018-05-31T18:40:33.109Z,30.40
2018-05-31T18:43:00.845Z,29.40
2018-05-31T18:45:28.524Z,28.90
2018-05-31T18:47:56.161Z,29.00
2018-05-31T18:50:24.791Z,28.70
2018-05-31T18:52:52.494Z,28.60
2018-05-31T18:55:20.240Z,28.90
2018-05-31T18:57:47.937Z,28.90
2018-05-31T19:00:15.601Z,29.10
2018-05-31T19:02:43.362Z,29.30
2018-05-31T19:05:11.139Z,28.40
2018-05-31T19:07:38.914Z,29.00
2018-05-31T19:10:06.633Z,28.60
2018-05-31T19:12:40.120Z,28.50
2018-05-31T19:15:07.815Z,28.80
2018-05-31T19:17:35.480Z,28.90
2018-05-31T19:20:03.254Z,28.60
2018-05-31T19:22:30.924Z,28.90
2018-05-31T19:25:04.617Z,28.90
2018-05-31T19:27:32.390Z,28.70
2018-05-31T19:33:01.944Z,28.60
2018-05-31T19:35:35.249Z,28.10
2018-05-31T19:38:03.025Z,27.40
2018-05-31T19:40:30.825Z,28.00
2018-05-31T19:46:03.345Z,27.40
2018-05-31T19:48:31.102Z,27.70
2018-05-31T19:50:58.877Z,27.80
2018-05-31T19:53:32.204Z,27.90
2018-05-31T19:56:00.072Z,28.10
2018-05-31T19:58:33.441Z,27.80
2018-05-31T20:01:06.982Z,27.60
2018-05-31T20:03:34.632Z,28.00
2018-05-31T20:06:02.312Z,28.00
2018-05-31T20:08:30.106Z,27.80
2018-05-31T20:10:57.890Z,26.30
2018-05-31T20:13:25.874Z,27.00
2018-05-31T20:15:53.845Z,27.40
2018-05-31T20:18:21.652Z,27.60
2018-05-31T20:20:49.551Z,27.60
2018-05-31T20:23:17.298Z,27.60
2018-05-31T20:25:45.051Z,27.60
2018-05-31T20:28:12.831Z,27.60
2018-05-31T20:30:40.660Z,27.50
2018-05-31T20:33:08.483Z,27.40
2018-05-31T20:35:36.116Z,27.40
2018-05-31T20:38:04.752Z,27.20
2018-05-31T20:40:32.451Z,27.20
2018-05-31T20:43:00.203Z,27.20
2018-05-31T20:45:27.980Z,27.20
2018-05-31T20:47:55.885Z,27.20
2018-05-31T20:50:23.843Z,27.20
2018-05-31T20:52:51.894Z,27.10
2018-05-31T20:55:19.735Z,27.10
2018-05-31T20:57:48.213Z,27.00
2018-05-31T21:00:15.889Z,27.00
2018-05-31T21:02:43.644Z,26.90
2018-05-31T21:05:11.340Z,26.70
2018-05-31T21:07:39.098Z,26.60
2018-05-31T21:10:06.768Z,26.70
2018-05-31T21:12:34.544Z,26.60
2018-05-31T21:15:02.320Z,26.60
2018-05-31T21:17:30.024Z,26.50
2018-05-31T21:19:57.775Z,26.50
2018-05-31T21:22:26.572Z,26.30
2018-05-31T21:24:54.272Z,26.30
2018-05-31T21:27:22.127Z,26.20
2018-05-31T21:29:49.857Z,26.10
2018-05-31T21:32:17.597Z,25.80
2018-05-31T21:34:45.272Z,25.90
2018-05-31T21:37:13.023Z,25.90
2018-05-31T21:39:40.697Z,25.90
2018-05-31T21:42:08.393Z,25.90
2018-05-31T21:44:36.253Z,26.00
2018-05-31T21:47:03.944Z,25.90
2018-05-31T21:49:31.597Z,25.90
2018-05-31T21:51:59.375Z,25.70
2018-05-31T21:54:27.022Z,25.80
2018-05-31T21:56:54.768Z,25.70
2018-05-31T21:59:22.605Z,25.70
2018-05-31T22:01:50.424Z,25.20
2018-05-31T22:04:18.154Z,25.10
2018-05-31T22:06:45.928Z,24.00
2018-05-31T22:09:13.574Z,24.70
2018-05-31T22:11:41.386Z,24.10
2018-05-31T22:14:09.053Z,24.70
2018-05-31T22:16:36.752Z,25.00
2018-05-31T22:19:04.504Z,25.20
2018-05-31T22:21:32.279Z,25.30
2018-05-31T22:24:00.057Z,25.40
2018-05-31T22:26:27.843Z,25.40
2018-05-31T22:28:55.488Z,25.20
2018-05-31T22:31:23.211Z,25.10
2018-05-31T22:33:51.062Z,25.10
2018-05-31T22:36:18.756Z,25.20
2018-05-31T22:38:46.431Z,25.30
2018-05-31T22:41:14.104Z,25.20
2018-05-31T22:43:41.859Z,24.60
2018-05-31T22:46:09.532Z,24.80
2018-05-31T22:48:37.308Z,25.00
2018-05-31T22:51:04.932Z,25.10
2018-05-31T22:53:32.600Z,25.20
2018-05-31T22:56:00.261Z,24.70
2018-05-31T22:58:27.928Z,24.90
2018-05-31T23:00:55.611Z,25.00
2018-05-31T23:03:23.561Z,25.00
2018-05-31T23:05:51.336Z,25.10
2018-05-31T23:08:19.133Z,25.10
2018-05-31T23:10:46.884Z,25.10
2018-05-31T23:13:14.593Z,25.10
2018-05-31T23:15:42.356Z,25.10
2018-05-31T23:18:10.134Z,25.10
2018-05-31T23:20:37.895Z,25.10
2018-05-31T23:23:05.604Z,25.00
2018-05-31T23:25:33.341Z,25.00
2018-05-31T23:28:01.013Z,25.10
2018-05-31T23:30:28.708Z,25.00
2018-05-31T23:32:56.588Z,25.00
2018-05-31T23:35:24.445Z,24.90
2018-05-31T23:37:52.148Z,24.90
2018-05-31T23:40:19.898Z,24.90
2018-05-31T23:42:47.542Z,24.90
2018-05-31T23:45:15.343Z,24.90
2018-05-31T23:47:43.122Z,24.90
2018-05-31T23:50:10.898Z,24.40
2018-05-31T23:52:38.594Z,24.30
2018-05-31T23:55:06.377Z,24.50
2018-05-31T23:57:34.126Z,24.50
